Time;durP1;ratioP1;P1;durP2;ratioP2;P2;SDS_P1;SDS_P2;PMS_P1;PMS_P2;Temp;Humidity;BMP_temperature;BMP_pressure;BME280_temperature;BME280_humidity;BME280_pressure;Samples;Min_cycle;Max_cycle;Signal;HPM_P1;HPM_P2
2023/10/18 00:06:15;;;;;;;15.00;9.80;;;3.50;99.90;;;;;;25340668;23;20002;-50
2023/10/18 00:16:17;;;;;;;14.85;8.90;;;3.40;99.90;;;;;;25340088;23;20009;-49
2023/10/18 00:26:19;;;;;;;12.70;6.25;;;3.40;99.90;;;;;;25340269;23;20377;-51
2023/10/18 00:36:24;;;;;;;10.63;5.95;;;3.60;99.90;;;;;;25313257;23;20059;-50
2023/10/18 00:46:28;;;;;;;10.25;6.05;;;3.70;99.90;;;;;;25339554;23;20457;-52
2023/10/18 00:56:33;;;;;;;9.45;5.10;;;3.70;99.90;;;;;;25360848;23;20073;-53
2023/10/18 01:06:36;;;;;;;10.27;6.60;;;3.60;99.90;;;;;;25313130;23;20006;-48
2023/10/18 01:16:38;;;;;;;11.82;7.00;;;3.50;99.90;;;;;;25313489;23;20084;-49
2023/10/18 01:26:40;;;;;;;19.25;10.73;;;3.60;99.90;;;;;;25338840;23;20009;-49
2023/10/18 01:36:42;;;;;;;16.13;8.20;;;3.80;99.90;;;;;;25320518;23;20160;-51
2023/10/18 01:46:48;;;;;;;12.05;6.90;;;3.90;99.90;;;;;;25347315;23;20115;-49
2023/10/18 01:56:53;;;;;;;11.77;5.75;;;4.00;99.90;;;;;;25340705;23;20018;-58
2023/10/18 02:07:02;;;;;;;8.32;5.40;;;4.10;99.90;;;;;;25319678;23;20504;-48
2023/10/18 02:17:09;;;;;;;11.57;5.88;;;4.00;99.90;;;;;;25385923;23;20032;-51
2023/10/18 02:27:19;;;;;;;10.90;5.80;;;3.90;99.90;;;;;;25385425;23;20013;-51
2023/10/18 02:37:24;;;;;;;8.32;4.50;;;3.90;99.90;;;;;;25384276;23;20065;-58
2023/10/18 02:47:29;;;;;;;7.82;5.68;;;3.80;99.90;;;;;;25345287;23;20001;-49
2023/10/18 02:57:33;;;;;;;13.10;7.25;;;3.90;99.90;;;;;;25343558;23;20386;-50
2023/10/18 03:07:35;;;;;;;11.70;6.70;;;3.90;99.90;;;;;;25342944;23;20010;-50
2023/10/18 03:17:37;;;;;;;9.07;5.90;;;3.80;99.90;;;;;;25343281;23;20014;-50
2023/10/18 03:27:41;;;;;;;10.52;5.70;;;3.90;99.90;;;;;;25342236;23;20334;-51
2023/10/18 03:37:46;;;;;;;11.25;6.18;;;4.20;99.90;;;;;;25341386;23;20014;-47
2023/10/18 03:47:57;;;;;;;13.23;6.50;;;4.70;99.90;;;;;;25315173;23;20037;-48
2023/10/18 03:58:01;;;;;;;11.23;6.55;;;5.00;99.90;;;;;;25356467;23;20057;-51
2023/10/18 04:08:06;;;;;;;10.65;6.55;;;5.30;99.90;;;;;;25314060;23;20013;-58
2023/10/18 04:28:13;;;;;;;14.55;9.38;;;5.70;99.90;;;;;;25339451;23;20061;-55
2023/10/18 04:38:30;;;;;;;15.27;8.32;;;5.80;99.90;;;;;;25338815;23;20013;-50
2023/10/18 04:58:51;;;;;;;16.75;11.45;;;5.90;99.90;;;;;;25351323;23;20022;-50
2023/10/18 05:08:55;;;;;;;18.58;12.60;;;6.00;99.90;;;;;;25344464;23;20061;-58
2023/10/18 05:18:58;;;;;;;20.92;15.10;;;6.10;99.90;;;;;;25346808;23;20407;-58
2023/10/18 05:29:03;;;;;;;20.55;14.10;;;6.20;99.90;;;;;;25346197;23;20319;-58
2023/10/18 05:49:42;;;;;;;19.10;14.07;;;6.20;99.90;;;;;;24974881;23;20011;-59
2023/10/18 05:59:46;;;;;;;22.48;14.98;;;6.20;99.90;;;;;;24973680;23;20060;-52
2023/10/18 06:19:57;;;;;;;19.70;13.93;;;6.40;99.90;;;;;;25180518;23;20010;-49
2023/10/18 06:29:59;;;;;;;21.15;14.32;;;6.70;99.90;;;;;;25343984;23;20005;-51
2023/10/18 06:40:02;;;;;;;23.45;14.80;;;6.90;99.90;;;;;;25342967;23;20330;-49
2023/10/18 06:50:04;;;;;;;17.50;13.35;;;7.10;99.90;;;;;;25343566;23;20010;-53
2023/10/18 07:00:10;;;;;;;18.90;12.93;;;7.00;99.90;;;;;;25350369;23;20542;-50
2023/10/18 07:10:30;;;;;;;17.83;13.40;;;7.20;99.90;;;;;;25382809;23;20445;-51
2023/10/18 07:20:33;;;;;;;18.55;13.18;;;7.50;99.90;;;;;;25382847;23;20061;-49
2023/10/18 07:30:43;;;;;;;20.17;12.18;;;7.80;99.90;;;;;;25340950;23;20034;-53
2023/10/18 07:40:55;;;;;;;11.57;7.57;;;8.00;99.90;;;;;;25381586;23;20801;-59
2023/10/18 07:50:58;;;;;;;15.65;11.00;;;8.40;99.90;;;;;;25315757;23;20009;-59
2023/10/18 08:11:11;;;;;;;14.05;9.10;;;9.60;99.90;;;;;;25341604;23;20010;-59
2023/10/18 08:31:33;;;;;;;;;;;10.90;99.90;;;;;;25380677;23;20041;-53
2023/10/18 08:41:37;;;;;;;14.43;10.05;;;10.60;99.90;;;;;;25338099;23;19920;-58
2023/10/18 08:51:45;;;;;;;15.75;10.93;;;10.30;99.90;;;;;;25338802;23;20002;-52
2023/10/18 09:12:15;;;;;;;8.77;5.60;;;9.80;99.90;;;;;;25257843;23;20006;-54
2023/10/18 09:22:17;;;;;;;7.83;5.33;;;9.70;99.90;;;;;;25257506;23;20053;-56
2023/10/18 09:32:32;;;;;;;15.68;10.43;;;10.00;99.90;;;;;;25216833;23;20010;-52
2023/10/18 09:42:34;;;;;;;16.25;11.35;;;10.00;99.90;;;;;;25256576;23;20013;-51
2023/10/18 09:52:47;;;;;;;15.82;10.50;;;9.50;99.90;;;;;;25227293;23;20017;-58
2023/10/18 10:02:52;;;;;;;17.70;12.43;;;9.30;99.90;;;;;;25345186;23;20006;-58
2023/10/18 10:12:57;;;;;;;16.25;11.95;;;9.30;99.90;;;;;;25344343;23;20009;-50
2023/10/18 10:23:06;;;;;;;11.88;6.75;;;9.20;99.90;;;;;;25344264;23;20053;-58
2023/10/18 10:33:12;;;;;;;7.18;4.82;;;9.20;99.90;;;;;;25384599;23;20006;-59
2023/10/18 10:43:14;;;;;;;19.38;13.88;;;9.30;99.90;;;;;;25343565;23;20012;-59
2023/10/18 10:53:30;;;;;;;20.05;12.35;;;9.40;99.90;;;;;;25343497;23;20022;-59
2023/10/18 11:03:54;;;;;;;8.90;6.30;;;9.40;99.90;;;;;;25382696;23;20046;-59
2023/10/18 11:13:56;;;;;;;3.42;1.30;;;9.60;99.90;;;;;;25382863;23;20002;-60
2023/10/18 11:24:02;;;;;;;0.60;0.50;;;9.80;99.90;;;;;;25342161;23;20006;-59
2023/10/18 11:34:07;;;;;;;0.95;0.20;;;9.80;99.90;;;;;;25382158;23;20038;-60
2023/10/18 11:44:17;;;;;;;0.50;0.45;;;10.00;99.90;;;;;;25340751;23;20386;-48
2023/10/18 11:54:35;;;;;;;2.43;1.33;;;10.00;99.90;;;;;;25371703;23;20014;-58
2023/10/18 12:04:37;;;;;;;1.92;1.17;;;9.90;99.90;;;;;;25381247;23;20006;-59
2023/10/18 12:14:42;;;;;;;1.25;1.02;;;9.90;99.90;;;;;;25341316;23;20033;-59
2023/10/18 12:24:44;;;;;;;2.42;1.48;;;9.80;99.90;;;;;;25339507;23;20219;-52
2023/10/18 12:34:48;;;;;;;79.03;2.72;;;9.80;99.90;;;;;;25339741;23;20014;-53
2023/10/18 12:44:55;;;;;;;0.77;0.40;;;9.80;99.90;;;;;;25338860;23;20009;-57
2023/10/18 12:55:00;;;;;;;1.15;0.80;;;9.80;99.90;;;;;;25367025;23;20338;-50
2023/10/18 13:05:02;;;;;;;0.13;0.10;;;9.60;99.90;;;;;;25338810;23;20002;-59
2023/10/18 13:15:07;;;;;;;0.70;0.05;;;9.50;99.90;;;;;;25337921;23;20114;-59
2023/10/18 13:25:24;;;;;;;0.20;0.08;;;9.70;99.90;;;;;;25340008;23;20006;-60
2023/10/18 13:35:28;;;;;;;0.00;0.00;;;9.60;99.90;;;;;;25386199;23;20026;-59
2023/10/18 13:45:33;;;;;;;0.00;0.00;;;9.60;99.90;;;;;;25321039;23;20010;-59
2023/10/18 13:55:35;;;;;;;0.00;0.00;;;9.80;99.90;;;;;;25345058;23;20021;-59
2023/10/18 14:05:40;;;;;;;0.10;0.00;;;9.80;99.90;;;;;;25345292;23;20014;-53
2023/10/18 14:15:43;;;;;;;0.43;0.00;;;9.70;99.90;;;;;;25344567;23;20009;-59
2023/10/18 14:25:46;;;;;;;6.22;0.10;;;9.60;99.90;;;;;;25344315;23;20014;-59
2023/10/18 14:35:48;;;;;;;1.65;0.00;;;9.60;99.90;;;;;;25342582;23;20002;-53
2023/10/18 14:45:51;;;;;;;14.15;0.32;;;9.60;99.90;;;;;;25294310;23;20010;-59
2023/10/18 14:55:53;;;;;;;10.57;0.20;;;9.60;99.90;;;;;;25343368;23;20509;-59
2023/10/18 15:05:54;;;;;;;19.90;0.30;;;9.40;99.90;;;;;;25342739;23;20513;-59
2023/10/18 15:15:56;;;;;;;31.67;0.65;;;9.00;99.90;;;;;;25342424;23;20010;-59
2023/10/18 15:26:03;;;;;;;2.50;0.00;;;8.70;99.90;;;;;;25341957;23;20009;-50
2023/10/18 15:36:15;;;;;;;15.93;0.22;;;8.70;99.90;;;;;;25382054;23;20009;-51
2023/10/18 15:46:26;;;;;;;0.00;0.00;;;8.70;99.90;;;;;;25381531;23;20006;-61
2023/10/18 15:56:27;;;;;;;;;;;8.60;99.90;;;;;;25362930;23;20010;-59
2023/10/18 16:06:29;;;;;;;0.17;0.10;;;8.60;99.90;;;;;;25340693;23;19905;-59
2023/10/18 16:16:31;;;;;;;0.28;0.10;;;8.60;99.90;;;;;;25341141;23;20036;-59
2023/10/18 16:26:33;;;;;;;0.00;0.00;;;8.50;99.90;;;;;;25339844;23;20010;-59
2023/10/18 16:36:35;;;;;;;27.77;0.73;;;8.50;99.90;;;;;;25340009;23;20009;-60
2023/10/18 16:46:36;;;;;;;0.00;0.00;;;8.50;99.90;;;;;;25340578;23;20434;-59
2023/10/18 16:56:41;;;;;;;0.00;0.00;;;8.50;99.90;;;;;;25339794;23;20014;-51
2023/10/18 17:06:43;;;;;;;0.00;0.00;;;8.50;99.90;;;;;;25339070;23;20002;-59
2023/10/18 17:16:47;;;;;;;0.00;0.00;;;8.50;99.90;;;;;;25341070;23;20500;-59
2023/10/18 17:26:48;;;;;;;0.15;0.00;;;8.50;99.90;;;;;;25339377;23;20056;-59
2023/10/18 17:36:50;;;;;;;0.68;0.00;;;8.50;99.90;;;;;;25338933;23;20005;-51
2023/10/18 17:46:53;;;;;;;0.00;0.00;;;8.50;99.90;;;;;;25339379;23;20006;-59
2023/10/18 17:56:55;;;;;;;0.00;0.00;;;8.50;99.90;;;;;;25338619;23;20045;-59
2023/10/18 18:06:57;;;;;;;0.00;0.00;;;8.50;99.90;;;;;;25338730;23;20080;-58
2023/10/18 18:16:59;;;;;;;0.00;0.00;;;8.50;99.90;;;;;;25344374;23;20010;-50
2023/10/18 18:27:01;;;;;;;0.90;0.00;;;8.60;99.90;;;;;;25345270;23;20065;-51
2023/10/18 18:37:04;;;;;;;1.65;0.00;;;8.60;99.90;;;;;;25344450;23;20326;-50
2023/10/18 18:47:06;;;;;;;5.60;0.20;;;8.60;99.90;;;;;;25344537;23;20010;-59
2023/10/18 18:57:10;;;;;;;18.58;0.52;;;8.60;99.90;;;;;;25343992;23;20014;-59
2023/10/18 19:07:11;;;;;;;5.82;0.30;;;8.60;99.90;;;;;;25343286;23;20006;-49
2023/10/18 19:17:14;;;;;;;24.40;0.50;;;8.60;99.90;;;;;;25343125;23;20006;-59
2023/10/18 19:27:16;;;;;;;13.48;0.20;;;8.50;99.90;;;;;;25316641;23;20017;-59
2023/10/18 19:37:19;;;;;;;24.67;0.52;;;8.40;99.90;;;;;;25342163;23;20034;-53
2023/10/18 19:47:21;;;;;;;0.10;0.10;;;8.40;99.90;;;;;;25341936;23;20521;-50
2023/10/18 19:57:23;;;;;;;0.22;0.10;;;8.40;99.90;;;;;;25341894;23;20319;-51
2023/10/18 20:07:24;;;;;;;0.00;0.00;;;8.50;99.90;;;;;;25343504;23;20005;-59
2023/10/18 20:17:26;;;;;;;0.40;0.00;;;8.50;99.90;;;;;;25342976;23;20006;-51
2023/10/18 20:27:29;;;;;;;0.20;0.00;;;8.50;99.90;;;;;;25342718;23;20341;-59
2023/10/18 20:37:31;;;;;;;0.43;0.00;;;8.50;99.90;;;;;;25341530;23;20443;-59
2023/10/18 20:47:33;;;;;;;0.10;0.00;;;8.50;99.90;;;;;;25342356;23;20009;-59
2023/10/18 20:57:35;;;;;;;0.43;0.05;;;8.60;99.90;;;;;;25341989;23;20073;-60
2023/10/18 21:07:39;;;;;;;0.50;0.20;;;8.70;99.90;;;;;;25341826;23;20006;-52
2023/10/18 21:17:41;;;;;;;3.35;0.60;;;8.70;99.90;;;;;;25341560;23;20006;-53
2023/10/18 21:27:45;;;;;;;2.50;0.50;;;8.80;99.90;;;;;;25341595;23;20002;-60
2023/10/18 21:37:48;;;;;;;1.80;0.82;;;8.90;99.90;;;;;;25340808;23;20006;-52
2023/10/18 21:47:51;;;;;;;2.38;1.00;;;8.90;99.90;;;;;;25344312;23;20006;-59
2023/10/18 21:57:53;;;;;;;2.00;0.77;;;8.90;99.90;;;;;;25321286;23;20014;-59
2023/10/18 22:07:56;;;;;;;4.32;0.35;;;8.90;99.90;;;;;;25348056;23;20006;-61
2023/10/18 22:18:00;;;;;;;133.80;5.15;;;8.90;99.90;;;;;;25347808;23;20010;-59
2023/10/18 22:28:06;;;;;;;3.42;1.42;;;8.90;99.90;;;;;;25347039;23;20001;-48
2023/10/18 22:38:12;;;;;;;1.73;1.30;;;8.80;99.90;;;;;;25346548;23;20002;-59
2023/10/18 22:48:23;;;;;;;4.40;2.50;;;8.70;99.90;;;;;;25388845;23;20299;-50
2023/10/18 22:58:29;;;;;;;2.40;1.60;;;8.70;99.90;;;;;;25351689;23;20014;-59
2023/10/18 23:08:37;;;;;;;21.02;2.10;;;8.90;99.90;;;;;;25386377;23;20440;-59
2023/10/18 23:18:53;;;;;;;6.90;1.77;;;9.10;99.90;;;;;;25360042;23;20061;-54
2023/10/18 23:28:58;;;;;;;1.48;1.05;;;9.00;99.90;;;;;;25385426;23;20013;-59
2023/10/18 23:39:04;;;;;;;1.92;1.40;;;9.00;99.90;;;;;;25344530;23;20006;-51
2023/10/18 23:59:13;;;;;;;2.20;1.83;;;9.10;99.90;;;;;;25343844;23;20013;-51
